createdAt,value
2023-04-10T00:01:17.663Z,26.10
2023-04-10T00:03:46.095Z,26.10
2023-04-10T00:06:14.238Z,26.10
2023-04-10T00:08:42.489Z,26.10
2023-04-10T00:11:10.671Z,26.10
2023-04-10T00:13:38.947Z,26.10
2023-04-10T00:16:07.574Z,26.10
2023-04-10T00:18:35.837Z,26.10
2023-04-10T00:21:04.625Z,26.10
2023-04-10T00:23:32.926Z,26.10
2023-04-10T00:26:01.754Z,26.10
2023-04-10T00:28:30.102Z,26.10
2023-04-10T00:30:58.399Z,26.10
2023-04-10T00:33:26.618Z,26.10
2023-04-10T00:35:54.680Z,26.10
2023-04-10T00:38:22.998Z,26.10
2023-04-10T00:40:51.225Z,26.10
2023-04-10T00:43:19.702Z,26.00
2023-04-10T00:45:49.985Z,26.00
2023-04-10T00:48:19.262Z,26.10
2023-04-10T00:50:48.000Z,26.10
2023-04-10T00:53:17.358Z,26.00
2023-04-10T00:55:46.111Z,26.10
2023-04-10T00:58:14.305Z,26.10
2023-04-10T01:00:43.007Z,26.00
2023-04-10T01:03:13.425Z,26.00
2023-04-10T01:06:07.727Z,26.00
2023-04-10T01:08:48.066Z,26.00
2023-04-10T01:11:34.378Z,26.00
2023-04-10T01:14:20.912Z,26.00
2023-04-10T01:16:57.570Z,26.00
2023-04-10T01:19:40.038Z,26.00
2023-04-10T01:22:08.997Z,26.00
2023-04-10T01:24:50.731Z,26.00
2023-04-10T01:27:37.708Z,25.90
2023-04-10T01:30:09.924Z,25.90
2023-04-10T01:32:39.613Z,25.90
2023-04-10T01:35:08.974Z,25.90
2023-04-10T01:37:41.258Z,25.90
2023-04-10T01:40:15.854Z,25.90
2023-04-10T01:42:53.995Z,25.90
2023-04-10T01:45:29.986Z,25.90
2023-04-10T01:47:59.017Z,25.80
2023-04-10T01:50:29.421Z,25.80
2023-04-10T01:52:58.931Z,25.80
2023-04-10T01:55:29.054Z,25.70
2023-04-10T01:58:04.618Z,25.70
2023-04-10T02:00:39.695Z,25.70
2023-04-10T02:03:09.161Z,25.70
2023-04-10T02:06:02.215Z,25.70
2023-04-10T02:08:41.109Z,25.70
2023-04-10T02:11:21.266Z,25.70
2023-04-10T02:13:54.552Z,25.70
2023-04-10T02:16:23.769Z,25.70
2023-04-10T02:18:53.330Z,25.70
2023-04-10T02:21:22.494Z,25.70
2023-04-10T02:23:50.801Z,25.70
2023-04-10T02:26:19.912Z,25.70
2023-04-10T02:28:48.879Z,25.70
2023-04-10T02:31:17.112Z,25.70
2023-04-10T02:33:45.318Z,25.70
2023-04-10T02:36:13.505Z,25.80
2023-04-10T02:38:41.820Z,25.70
2023-04-10T02:41:12.503Z,25.70
2023-04-10T02:43:41.100Z,25.70
2023-04-10T02:46:09.645Z,25.70
2023-04-10T02:48:40.738Z,25.70
2023-04-10T02:51:09.045Z,25.70
2023-04-10T02:53:37.614Z,25.70
2023-04-10T02:56:06.292Z,25.70
2023-04-10T02:58:34.766Z,25.70
2023-04-10T03:01:03.204Z,25.70
2023-04-10T03:03:42.868Z,25.70
2023-04-10T03:06:11.777Z,25.70
2023-04-10T03:08:41.763Z,25.70
2023-04-10T03:11:10.052Z,25.70
2023-04-10T03:13:38.446Z,25.70
2023-04-10T03:16:06.954Z,25.70
2023-04-10T03:18:35.386Z,25.70
2023-04-10T03:21:04.085Z,25.60
2023-04-10T03:23:32.419Z,25.70
2023-04-10T03:26:00.722Z,25.60
2023-04-10T03:28:31.620Z,25.70
2023-04-10T03:30:59.835Z,25.60
2023-04-10T03:33:28.390Z,25.60
2023-04-10T03:35:56.607Z,25.70
2023-04-10T03:38:24.779Z,25.60
2023-04-10T03:40:53.778Z,25.60
2023-04-10T03:43:26.052Z,25.60
2023-04-10T03:45:54.330Z,25.60
2023-04-10T03:48:23.872Z,25.60
2023-04-10T03:50:52.528Z,25.60
2023-04-10T03:53:20.723Z,25.60
2023-04-10T03:55:49.071Z,25.60
2023-04-10T03:58:17.211Z,25.60
2023-04-10T04:00:47.154Z,25.60
2023-04-10T04:03:25.833Z,25.60
2023-04-10T04:05:54.163Z,25.60
2023-04-10T04:08:42.663Z,25.60
2023-04-10T04:11:19.199Z,25.60
2023-04-10T04:13:53.666Z,25.50
2023-04-10T04:16:45.331Z,25.50
2023-04-10T04:19:33.850Z,25.50
2023-04-10T04:22:28.326Z,25.50
2023-04-10T04:25:06.051Z,25.50
2023-04-10T04:27:54.975Z,25.40
2023-04-10T04:30:52.412Z,25.50
2023-04-10T04:33:41.427Z,25.40
2023-04-10T04:36:41.189Z,25.40
2023-04-10T04:39:15.221Z,25.40
2023-04-10T04:42:15.491Z,25.40
2023-04-10T04:44:51.273Z,25.40
2023-04-10T04:47:37.917Z,25.40
2023-04-10T04:50:35.557Z,25.40
2023-04-10T04:53:23.023Z,25.40
2023-04-10T04:56:09.433Z,25.40
2023-04-10T04:58:57.868Z,25.40
2023-04-10T05:01:49.138Z,25.40
2023-04-10T05:04:35.838Z,25.40
2023-04-10T05:07:26.708Z,25.40
2023-04-10T05:10:00.175Z,25.40
2023-04-10T05:12:46.960Z,25.40
2023-04-10T05:15:35.854Z,25.40
2023-04-10T05:18:31.816Z,25.40
2023-04-10T05:21:00.135Z,25.40
2023-04-10T05:23:46.346Z,25.40
2023-04-10T05:26:38.550Z,25.40
2023-04-10T05:29:06.801Z,25.40
2023-04-10T05:31:53.480Z,25.40
2023-04-10T05:34:41.340Z,25.40
2023-04-10T05:37:19.449Z,25.40
2023-04-10T05:39:57.623Z,25.40
2023-04-10T05:42:28.578Z,25.40
2023-04-10T05:45:17.258Z,25.40
2023-04-10T05:48:01.864Z,25.40
2023-04-10T05:50:38.551Z,25.40
2023-04-10T05:53:35.616Z,25.40
2023-04-10T05:56:41.954Z,25.40
2023-04-10T05:59:35.817Z,25.40
2023-04-10T06:02:24.325Z,25.40
2023-04-10T06:04:52.813Z,25.40
2023-04-10T06:07:21.385Z,25.40
2023-04-10T06:09:49.542Z,25.40
2023-04-10T06:12:17.705Z,25.40
2023-04-10T06:14:46.129Z,25.40
2023-04-10T06:17:14.421Z,25.40
2023-04-10T06:19:42.670Z,25.40
2023-04-10T06:22:10.938Z,25.40
2023-04-10T06:24:39.105Z,25.40
2023-04-10T06:27:07.601Z,25.40
2023-04-10T06:29:36.028Z,25.40
2023-04-10T06:32:04.374Z,25.30
2023-04-10T06:34:36.742Z,25.30
2023-04-10T06:37:08.076Z,25.40
2023-04-10T06:39:38.261Z,25.40
2023-04-10T06:42:06.488Z,25.40
2023-04-10T06:45:01.670Z,25.30
2023-04-10T06:47:29.970Z,25.30
2023-04-10T06:49:58.297Z,25.30
2023-04-10T06:52:26.812Z,25.30
2023-04-10T06:54:55.173Z,25.40
2023-04-10T06:57:23.256Z,25.30
2023-04-10T06:59:51.570Z,25.40
2023-04-10T07:02:19.854Z,25.40
2023-04-10T07:04:48.329Z,25.40
2023-04-10T07:07:16.597Z,25.40
2023-04-10T07:09:44.788Z,25.40
2023-04-10T07:12:13.190Z,25.40
2023-04-10T07:14:41.410Z,25.50
2023-04-10T07:17:09.842Z,25.50
2023-04-10T07:19:40.405Z,25.40
2023-04-10T07:22:08.570Z,25.50
2023-04-10T07:24:36.831Z,25.50
2023-04-10T07:27:05.068Z,25.50
2023-04-10T07:29:33.259Z,25.50
2023-04-10T07:32:01.660Z,25.50
2023-04-10T07:34:31.154Z,25.60
2023-04-10T07:36:59.340Z,25.60
2023-04-10T07:39:27.543Z,25.60
2023-04-10T07:41:55.834Z,25.60
2023-04-10T07:44:24.066Z,25.60
2023-04-10T07:46:52.470Z,25.70
2023-04-10T07:49:21.095Z,25.70
2023-04-10T07:51:49.406Z,25.70
2023-04-10T07:54:17.573Z,25.70
2023-04-10T07:56:45.694Z,25.80
2023-04-10T07:59:13.987Z,25.80
2023-04-10T08:01:42.284Z,25.90
2023-04-10T08:04:10.574Z,25.90
2023-04-10T08:06:38.965Z,26.00
2023-04-10T08:09:07.255Z,26.00
2023-04-10T08:11:38.359Z,26.00
2023-04-10T08:14:07.397Z,26.10
2023-04-10T08:16:36.812Z,26.10
2023-04-10T08:19:05.101Z,26.20
2023-04-10T08:21:33.668Z,26.20
2023-04-10T08:24:03.670Z,26.30
2023-04-10T08:26:32.181Z,26.30
2023-04-10T08:29:00.851Z,26.40
2023-04-10T08:31:30.152Z,26.40
2023-04-10T08:34:03.380Z,26.50
2023-04-10T08:36:31.734Z,26.50
2023-04-10T08:39:00.081Z,26.50
2023-04-10T08:41:28.164Z,26.60
2023-04-10T08:43:58.247Z,26.60
2023-04-10T08:46:28.296Z,26.70
2023-04-10T08:49:03.179Z,26.70
2023-04-10T08:51:47.974Z,26.80
2023-04-10T08:54:26.307Z,26.90
2023-04-10T08:56:55.933Z,26.90
2023-04-10T08:59:24.238Z,26.90
2023-04-10T09:01:52.454Z,27.00
2023-04-10T09:04:21.361Z,27.00
2023-04-10T09:06:49.723Z,27.10
2023-04-10T09:09:17.902Z,27.10
2023-04-10T09:11:55.000Z,27.10
2023-04-10T09:14:33.678Z,27.20
2023-04-10T09:17:20.235Z,27.30
2023-04-10T09:19:57.304Z,27.30
2023-04-10T09:22:36.096Z,27.40
2023-04-10T09:25:05.513Z,27.40
2023-04-10T09:27:36.324Z,27.50
2023-04-10T09:30:05.472Z,27.50
2023-04-10T09:32:43.828Z,27.50
2023-04-10T09:35:14.286Z,27.60
2023-04-10T09:37:45.203Z,27.70
2023-04-10T09:40:23.884Z,27.70
2023-04-10T09:42:52.465Z,27.70
2023-04-10T09:45:20.828Z,27.70
2023-04-10T09:48:07.620Z,27.80
2023-04-10T09:50:40.392Z,27.80
2023-04-10T09:53:14.500Z,27.80
2023-04-10T09:55:43.962Z,27.90
2023-04-10T09:58:13.154Z,27.80
2023-04-10T10:00:43.731Z,27.80
2023-04-10T10:03:17.004Z,27.80
2023-04-10T10:05:51.835Z,27.80
2023-04-10T10:08:20.633Z,27.80
2023-04-10T10:10:52.114Z,27.80
2023-04-10T10:13:31.157Z,27.80
2023-04-10T10:16:09.607Z,27.80
2023-04-10T10:18:42.350Z,27.90
2023-04-10T10:21:11.071Z,27.90
2023-04-10T10:23:40.287Z,28.00
2023-04-10T10:26:10.447Z,28.00
2023-04-10T10:28:40.581Z,28.10
2023-04-10T10:31:09.223Z,28.20
2023-04-10T10:33:38.596Z,28.30
2023-04-10T10:36:07.650Z,28.30
2023-04-10T10:38:39.250Z,28.30
2023-04-10T10:41:10.512Z,28.30
2023-04-10T10:44:00.037Z,28.40
2023-04-10T10:46:52.856Z,28.40
2023-04-10T10:49:21.005Z,28.50
2023-04-10T10:51:51.601Z,28.40
2023-04-10T10:54:29.580Z,28.50
2023-04-10T10:56:58.265Z,28.60
2023-04-10T10:59:44.396Z,28.60
2023-04-10T11:02:20.112Z,28.70
2023-04-10T11:04:49.810Z,28.60
2023-04-10T11:07:20.237Z,28.60
2023-04-10T11:09:53.356Z,28.70
2023-04-10T11:12:23.831Z,28.70
2023-04-10T11:15:02.703Z,28.70
2023-04-10T11:17:53.373Z,28.70
2023-04-10T11:20:22.423Z,28.70
2023-04-10T11:23:09.585Z,28.80
2023-04-10T11:25:53.787Z,28.80
2023-04-10T11:28:34.068Z,28.80
2023-04-10T11:31:23.950Z,28.90
2023-04-10T11:34:12.887Z,28.90
2023-04-10T11:36:43.227Z,28.90
2023-04-10T11:39:13.853Z,28.90
2023-04-10T11:41:52.823Z,28.80
2023-04-10T11:44:26.758Z,28.80
2023-04-10T11:50:12.247Z,28.90
2023-04-10T11:52:40.541Z,29.00
2023-04-10T11:55:08.983Z,29.20
2023-04-10T11:57:37.590Z,29.20
2023-04-10T12:00:06.644Z,29.30
2023-04-10T12:02:34.936Z,29.40
2023-04-10T12:05:03.263Z,29.60
2023-04-10T12:07:32.633Z,29.60
2023-04-10T12:10:01.239Z,29.70
2023-04-10T12:12:38.527Z,29.60
2023-04-10T12:15:27.115Z,29.60
2023-04-10T12:17:56.343Z,29.60
2023-04-10T12:20:24.656Z,29.60
2023-04-10T12:22:54.438Z,29.70
2023-04-10T12:25:22.691Z,29.70
2023-04-10T12:27:51.065Z,29.70
2023-04-10T12:30:19.445Z,29.70
2023-04-10T12:32:56.691Z,29.70
2023-04-10T12:35:40.797Z,29.60
2023-04-10T12:38:08.971Z,29.60
2023-04-10T12:40:37.290Z,29.70
2023-04-10T12:43:05.542Z,29.70
2023-04-10T12:45:45.904Z,29.70
2023-04-10T12:48:23.204Z,29.70
2023-04-10T12:50:51.672Z,29.70
2023-04-10T12:53:20.245Z,29.80
2023-04-10T12:55:59.124Z,29.70
2023-04-10T12:58:28.012Z,29.80
2023-04-10T13:00:57.316Z,29.80
2023-04-10T13:03:25.729Z,29.70
2023-04-10T13:05:54.364Z,29.80
2023-04-10T13:08:23.286Z,29.80
2023-04-10T13:10:51.550Z,29.80
2023-04-10T13:13:20.042Z,29.80
2023-04-10T13:15:48.260Z,29.80
2023-04-10T13:18:16.449Z,29.90
2023-04-10T13:20:44.620Z,29.90
2023-04-10T13:23:12.974Z,29.90
2023-04-10T13:25:41.403Z,29.80
2023-04-10T13:28:09.708Z,29.90
2023-04-10T13:30:39.790Z,29.90
2023-04-10T13:33:09.148Z,30.00
2023-04-10T13:35:37.559Z,30.10
2023-04-10T13:38:05.951Z,30.20
2023-04-10T13:40:34.151Z,30.10
2023-04-10T13:43:02.366Z,30.20
2023-04-10T13:45:30.554Z,30.10
2023-04-10T13:47:58.874Z,30.20
2023-04-10T13:50:27.120Z,30.10
2023-04-10T13:52:55.402Z,30.10
2023-04-10T13:55:23.576Z,30.10
2023-04-10T13:57:52.446Z,30.00
2023-04-10T14:00:20.577Z,30.00
2023-04-10T14:02:48.882Z,30.00
2023-04-10T14:05:17.257Z,30.00
2023-04-10T14:07:45.480Z,30.10
2023-04-10T14:10:13.623Z,30.10
2023-04-10T14:12:41.821Z,30.10
2023-04-10T14:15:10.585Z,30.10
2023-04-10T14:17:38.900Z,30.10
2023-04-10T14:20:08.995Z,30.00
2023-04-10T14:22:37.334Z,30.00
2023-04-10T14:25:13.210Z,30.00
2023-04-10T14:27:42.540Z,30.00
2023-04-10T14:30:11.763Z,30.00
2023-04-10T14:32:40.469Z,30.00
2023-04-10T14:35:09.346Z,30.10
2023-04-10T14:37:37.860Z,30.10
2023-04-10T14:40:06.887Z,30.10
2023-04-10T14:42:35.158Z,30.20
2023-04-10T14:45:03.360Z,30.20
2023-04-10T14:47:31.557Z,30.20
2023-04-10T14:50:00.014Z,30.30
2023-04-10T14:52:28.175Z,30.30
2023-04-10T14:54:58.020Z,30.40
2023-04-10T14:57:26.292Z,30.40
2023-04-10T14:59:54.645Z,30.50
2023-04-10T15:02:22.836Z,30.40
2023-04-10T15:04:51.913Z,30.40
2023-04-10T15:07:20.250Z,30.40
2023-04-10T15:09:48.951Z,30.50
2023-04-10T15:12:17.237Z,30.50
2023-04-10T15:14:45.488Z,30.60
2023-04-10T15:17:13.776Z,30.60
2023-04-10T15:19:42.000Z,30.70
2023-04-10T15:22:10.394Z,30.70
2023-04-10T15:24:49.885Z,30.90
2023-04-10T15:27:22.451Z,30.90
2023-04-10T15:29:50.736Z,30.90
2023-04-10T15:32:19.081Z,30.90
2023-04-10T15:34:50.290Z,30.80
2023-04-10T15:37:18.498Z,30.80
2023-04-10T15:39:46.954Z,31.00
2023-04-10T15:42:15.155Z,31.00
2023-04-10T15:44:47.522Z,31.00
2023-04-10T15:47:16.863Z,31.20
2023-04-10T15:49:45.168Z,31.10
2023-04-10T15:52:13.387Z,31.30
2023-04-10T15:54:41.514Z,31.50
2023-04-10T15:57:09.836Z,31.70
2023-04-10T15:59:38.206Z,31.70
2023-04-10T16:02:06.985Z,32.10
2023-04-10T16:04:35.432Z,32.40
2023-04-10T16:07:03.754Z,32.70
2023-04-10T16:09:32.106Z,32.80
2023-04-10T16:12:00.279Z,33.00
2023-04-10T16:14:28.689Z,33.30
2023-04-10T16:16:56.874Z,33.50
2023-04-10T16:19:25.498Z,33.40
2023-04-10T16:21:53.579Z,33.30
2023-04-10T16:24:21.747Z,33.40
2023-04-10T16:26:50.197Z,33.60
2023-04-10T16:29:21.238Z,33.80
2023-04-10T16:31:49.690Z,33.70
2023-04-10T16:34:17.873Z,33.60
2023-04-10T16:36:46.188Z,33.70
2023-04-10T16:39:17.023Z,34.00
2023-04-10T16:41:45.730Z,34.00
2023-04-10T16:44:13.825Z,34.10
2023-04-10T16:46:42.062Z,33.80
2023-04-10T16:49:13.296Z,34.00
2023-04-10T16:51:41.621Z,34.20
2023-04-10T16:54:09.946Z,34.40
2023-04-10T16:56:38.240Z,34.60
2023-04-10T16:59:06.462Z,34.80
2023-04-10T17:01:35.952Z,34.70
2023-04-10T17:04:04.226Z,34.70
2023-04-10T17:06:32.743Z,34.50
2023-04-10T17:09:00.893Z,34.40
2023-04-10T17:11:29.223Z,34.60
2023-04-10T17:13:57.423Z,34.30
2023-04-10T17:16:25.847Z,33.90
2023-04-10T17:18:54.185Z,33.90
2023-04-10T17:21:22.592Z,33.60
2023-04-10T17:23:50.890Z,33.50
2023-04-10T17:26:19.692Z,33.40
2023-04-10T17:28:47.952Z,33.20
2023-04-10T17:31:17.604Z,33.10
2023-04-10T17:33:45.962Z,32.90
2023-04-10T17:36:15.006Z,32.80
2023-04-10T17:38:43.532Z,32.70
2023-04-10T17:41:15.467Z,32.30
2023-04-10T17:43:43.708Z,31.90
2023-04-10T17:46:16.010Z,31.60
2023-04-10T17:48:45.212Z,31.40
2023-04-10T17:51:13.603Z,31.00
2023-04-10T17:53:41.834Z,30.80
2023-04-10T17:56:18.326Z,30.50
2023-04-10T17:58:46.739Z,30.20
2023-04-10T18:01:28.000Z,30.00
2023-04-10T18:03:56.948Z,29.80
2023-04-10T18:06:26.091Z,29.80
2023-04-10T18:08:54.687Z,29.60
2023-04-10T18:11:23.400Z,29.60
2023-04-10T18:13:51.606Z,29.50
2023-04-10T18:16:20.029Z,29.50
2023-04-10T18:18:48.137Z,29.40
2023-04-10T18:21:17.036Z,29.40
2023-04-10T18:23:45.227Z,29.30
2023-04-10T18:26:13.639Z,29.30
2023-04-10T18:28:41.722Z,29.20
2023-04-10T18:31:09.940Z,29.20
2023-04-10T18:33:38.575Z,29.10
2023-04-10T18:36:07.143Z,29.00
2023-04-10T18:38:35.424Z,28.90
2023-04-10T18:41:03.635Z,28.90
2023-04-10T18:43:32.024Z,28.90
2023-04-10T18:46:00.822Z,28.80
2023-04-10T18:48:29.133Z,28.70
2023-04-10T18:50:57.464Z,28.70
2023-04-10T18:53:25.640Z,28.60
2023-04-10T18:55:55.063Z,28.60
2023-04-10T18:58:23.625Z,28.50
2023-04-10T19:00:51.950Z,28.50
2023-04-10T19:03:20.270Z,28.50
2023-04-10T19:05:48.672Z,28.50
2023-04-10T19:08:16.974Z,28.50
2023-04-10T19:10:45.361Z,28.40
2023-04-10T19:13:14.081Z,28.30
2023-04-10T19:15:47.770Z,28.30
2023-04-10T19:18:16.728Z,28.30
2023-04-10T19:20:51.026Z,28.30
2023-04-10T19:23:21.807Z,28.30
2023-04-10T19:25:56.304Z,28.30
2023-04-10T19:28:24.696Z,28.30
2023-04-10T19:30:53.400Z,28.20
2023-04-10T19:33:21.543Z,28.20
2023-04-10T19:35:49.857Z,28.10
2023-04-10T19:38:18.299Z,28.20
2023-04-10T19:40:46.494Z,28.10
2023-04-10T19:43:14.734Z,28.20
2023-04-10T19:45:43.006Z,28.10
2023-04-10T19:48:11.322Z,28.10
2023-04-10T19:50:39.558Z,28.10
2023-04-10T19:53:08.011Z,28.10
2023-04-10T19:55:36.286Z,28.10
2023-04-10T19:58:04.505Z,28.10
2023-04-10T20:00:32.754Z,28.10
2023-04-10T20:03:01.257Z,28.10
2023-04-10T20:05:30.291Z,28.10
2023-04-10T20:07:58.631Z,28.10
2023-04-10T20:10:26.792Z,28.10
2023-04-10T20:12:55.168Z,28.10
2023-04-10T20:15:23.339Z,28.00
2023-04-10T20:17:51.700Z,28.00
2023-04-10T20:20:19.824Z,28.00
2023-04-10T20:22:48.085Z,28.00
2023-04-10T20:25:16.405Z,28.00
2023-04-10T20:27:45.078Z,28.00
2023-04-10T20:30:13.347Z,28.00
2023-04-10T20:32:41.615Z,28.00
2023-04-10T20:35:11.008Z,28.00
2023-04-10T20:37:39.238Z,28.00
2023-04-10T20:40:08.101Z,28.00
2023-04-10T20:42:36.302Z,28.00
2023-04-10T20:45:05.371Z,28.00
2023-04-10T20:47:33.843Z,27.90
2023-04-10T20:50:02.014Z,28.00
2023-04-10T20:52:30.449Z,27.90
2023-04-10T20:54:59.205Z,28.00
2023-04-10T20:57:34.731Z,27.90
2023-04-10T21:00:03.061Z,27.90
2023-04-10T21:02:31.723Z,27.90
2023-04-10T21:05:00.689Z,27.90
2023-04-10T21:07:28.858Z,27.90
2023-04-10T21:09:57.281Z,27.90
2023-04-10T21:13:09.047Z,27.90
2023-04-10T21:15:37.480Z,27.90
2023-04-10T21:20:42.212Z,27.90
2023-04-10T21:23:10.694Z,27.80
2023-04-10T21:25:39.739Z,27.80
2023-04-10T21:28:08.042Z,27.90
2023-04-10T21:30:36.678Z,27.80
2023-04-10T21:33:05.113Z,27.80
2023-04-10T21:35:33.443Z,27.80
2023-04-10T21:38:02.339Z,27.80
2023-04-10T21:40:30.895Z,27.80
2023-04-10T21:42:59.254Z,27.80
2023-04-10T21:45:27.465Z,27.80
2023-04-10T21:47:55.801Z,27.80
2023-04-10T21:50:25.920Z,27.80
2023-04-10T21:52:54.302Z,27.80
2023-04-10T21:55:22.530Z,27.70
2023-04-10T21:57:50.851Z,27.80
2023-04-10T22:00:20.660Z,27.80
2023-04-10T22:02:51.574Z,27.70
2023-04-10T22:05:20.043Z,27.70
2023-04-10T22:07:48.289Z,27.70
2023-04-10T22:10:16.790Z,27.70
2023-04-10T22:12:47.628Z,27.70
2023-04-10T22:15:16.993Z,27.70
2023-04-10T22:17:45.905Z,27.70
2023-04-10T22:20:14.365Z,27.70
2023-04-10T22:22:42.648Z,27.70
2023-04-10T22:25:10.988Z,27.70
2023-04-10T22:27:39.146Z,27.70
2023-04-10T22:30:08.094Z,27.70
2023-04-10T22:32:36.512Z,27.70
2023-04-10T22:35:04.900Z,27.70
2023-04-10T22:37:33.262Z,27.70
2023-04-10T22:40:01.414Z,27.70
2023-04-10T22:42:31.739Z,27.60
2023-04-10T22:45:00.517Z,27.70
2023-04-10T22:47:28.720Z,27.70
2023-04-10T22:49:56.947Z,27.70
2023-04-10T22:52:25.187Z,27.70
2023-04-10T22:54:53.454Z,27.70
2023-04-10T22:57:21.511Z,27.70
2023-04-10T22:59:49.829Z,27.60
2023-04-10T23:02:18.163Z,27.70
2023-04-10T23:04:46.686Z,27.70
2023-04-10T23:07:15.019Z,27.70
2023-04-10T23:09:43.246Z,27.60
2023-04-10T23:12:11.409Z,27.60
2023-04-10T23:14:39.744Z,27.60
2023-04-10T23:18:17.568Z,27.50
2023-04-10T23:20:47.117Z,27.60
2023-04-10T23:23:15.743Z,27.60
2023-04-10T23:25:43.936Z,27.60
2023-04-10T23:28:12.237Z,27.60
2023-04-10T23:30:40.551Z,27.60
2023-04-10T23:33:08.847Z,27.50
2023-04-10T23:35:37.208Z,27.50
2023-04-10T23:38:05.352Z,27.60
2023-04-10T23:40:33.569Z,27.60
2023-04-10T23:43:01.995Z,27.50
2023-04-10T23:45:30.203Z,27.50
2023-04-10T23:47:58.371Z,27.50
2023-04-10T23:50:26.592Z,27.50
2023-04-10T23:52:54.800Z,27.50
2023-04-10T23:55:24.314Z,27.50
2023-04-10T23:57:52.652Z,27.50
